sensor_id;sensor_type;location;lat;lon;timestamp;P1;durP1;ratioP1;P2;durP2;ratioP2
27580;SDS011;63557;52.302;7.964;2023-01-10T00:04:06;12.57;;;4.53;;
27580;SDS011;63557;52.302;7.964;2023-01-10T00:09:08;16.07;;;4.53;;
27580;SDS011;63557;52.302;7.964;2023-01-10T00:14:08;16.60;;;4.32;;
27580;SDS011;63557;52.302;7.964;2023-01-10T00:19:10;15.32;;;4.55;;
27580;SDS011;63557;52.302;7.964;2023-01-10T00:24:10;14.00;;;3.70;;
27580;SDS011;63557;52.302;7.964;2023-01-10T00:29:25;16.10;;;4.57;;
27580;SDS011;63557;52.302;7.964;2023-01-10T00:39:27;17.15;;;4.00;;
27580;SDS011;63557;52.302;7.964;2023-01-10T00:44:27;10.18;;;3.83;;
27580;SDS011;63557;52.302;7.964;2023-01-10T00:49:27;11.20;;;3.70;;
27580;SDS011;63557;52.302;7.964;2023-01-10T00:54:28;16.70;;;5.60;;
27580;SDS011;63557;52.302;7.964;2023-01-10T00:59:28;19.80;;;6.03;;
27580;SDS011;63557;52.302;7.964;2023-01-10T01:04:29;17.60;;;6.30;;
27580;SDS011;63557;52.302;7.964;2023-01-10T01:09:33;13.82;;;6.05;;
27580;SDS011;63557;52.302;7.964;2023-01-10T01:14:33;17.67;;;6.63;;
27580;SDS011;63557;52.302;7.964;2023-01-10T01:19:33;19.77;;;8.70;;
27580;SDS011;63557;52.302;7.964;2023-01-10T01:24:34;27.67;;;8.17;;
27580;SDS011;63557;52.302;7.964;2023-01-10T01:29:34;19.40;;;7.63;;
27580;SDS011;63557;52.302;7.964;2023-01-10T01:34:34;26.10;;;7.47;;
27580;SDS011;63557;52.302;7.964;2023-01-10T01:39:35;33.00;;;8.43;;
27580;SDS011;63557;52.302;7.964;2023-01-10T01:44:36;34.13;;;8.60;;
27580;SDS011;63557;52.302;7.964;2023-01-10T01:49:39;20.33;;;7.82;;
27580;SDS011;63557;52.302;7.964;2023-01-10T01:54:40;31.13;;;7.50;;
27580;SDS011;63557;52.302;7.964;2023-01-10T01:59:41;22.77;;;6.88;;
27580;SDS011;63557;52.302;7.964;2023-01-10T02:04:50;31.35;;;6.68;;
27580;SDS011;63557;52.302;7.964;2023-01-10T02:09:53;33.45;;;8.00;;
27580;SDS011;63557;52.302;7.964;2023-01-10T02:14:56;25.20;;;7.47;;
27580;SDS011;63557;52.302;7.964;2023-01-10T02:19:59;29.30;;;8.07;;
27580;SDS011;63557;52.302;7.964;2023-01-10T02:25:05;24.65;;;8.20;;
27580;SDS011;63557;52.302;7.964;2023-01-10T02:40:25;22.25;;;6.97;;
27580;SDS011;63557;52.302;7.964;2023-01-10T02:45:42;24.73;;;7.30;;
27580;SDS011;63557;52.302;7.964;2023-01-10T03:05:51;36.42;;;7.80;;
27580;SDS011;63557;52.302;7.964;2023-01-10T03:10:58;19.92;;;7.32;;
27580;SDS011;63557;52.302;7.964;2023-01-10T03:21:01;33.25;;;6.53;;
27580;SDS011;63557;52.302;7.964;2023-01-10T03:26:02;32.05;;;6.82;;
27580;SDS011;63557;52.302;7.964;2023-01-10T03:31:06;31.08;;;7.88;;
27580;SDS011;63557;52.302;7.964;2023-01-10T03:36:16;24.15;;;7.70;;
27580;SDS011;63557;52.302;7.964;2023-01-10T03:41:29;26.52;;;7.53;;
27580;SDS011;63557;52.302;7.964;2023-01-10T03:46:36;29.55;;;8.23;;
27580;SDS011;63557;52.302;7.964;2023-01-10T03:51:38;34.85;;;8.35;;
27580;SDS011;63557;52.302;7.964;2023-01-10T03:56:45;31.88;;;9.25;;
27580;SDS011;63557;52.302;7.964;2023-01-10T04:01:46;26.88;;;8.85;;
27580;SDS011;63557;52.302;7.964;2023-01-10T04:06:47;34.30;;;8.48;;
27580;SDS011;63557;52.302;7.964;2023-01-10T04:11:47;32.55;;;8.70;;
27580;SDS011;63557;52.302;7.964;2023-01-10T04:16:47;37.13;;;9.80;;
27580;SDS011;63557;52.302;7.964;2023-01-10T04:21:48;33.45;;;10.15;;
27580;SDS011;63557;52.302;7.964;2023-01-10T04:26:48;27.57;;;10.03;;
27580;SDS011;63557;52.302;7.964;2023-01-10T04:31:48;33.42;;;10.90;;
27580;SDS011;63557;52.302;7.964;2023-01-10T04:36:49;36.93;;;11.63;;
27580;SDS011;63557;52.302;7.964;2023-01-10T04:41:49;36.65;;;10.93;;
27580;SDS011;63557;52.302;7.964;2023-01-10T04:46:50;28.63;;;11.43;;
27580;SDS011;63557;52.302;7.964;2023-01-10T04:51:50;27.93;;;10.90;;
27580;SDS011;63557;52.302;7.964;2023-01-10T04:56:50;29.17;;;10.45;;
27580;SDS011;63557;52.302;7.964;2023-01-10T05:01:51;41.53;;;9.50;;
27580;SDS011;63557;52.302;7.964;2023-01-10T05:06:51;45.07;;;10.40;;
27580;SDS011;63557;52.302;7.964;2023-01-10T05:11:51;30.00;;;9.47;;
27580;SDS011;63557;52.302;7.964;2023-01-10T05:16:52;38.00;;;8.97;;
27580;SDS011;63557;52.302;7.964;2023-01-10T05:21:52;29.63;;;8.10;;
27580;SDS011;63557;52.302;7.964;2023-01-10T05:26:54;31.25;;;9.35;;
27580;SDS011;63557;52.302;7.964;2023-01-10T05:31:54;22.97;;;7.70;;
27580;SDS011;63557;52.302;7.964;2023-01-10T05:36:54;28.92;;;9.45;;
27580;SDS011;63557;52.302;7.964;2023-01-10T05:41:55;24.73;;;8.13;;
27580;SDS011;63557;52.302;7.964;2023-01-10T05:46:55;26.50;;;8.67;;
27580;SDS011;63557;52.302;7.964;2023-01-10T05:51:55;23.42;;;8.52;;
27580;SDS011;63557;52.302;7.964;2023-01-10T05:56:56;27.20;;;8.38;;
27580;SDS011;63557;52.302;7.964;2023-01-10T06:01:56;32.30;;;8.40;;
27580;SDS011;63557;52.302;7.964;2023-01-10T06:06:56;28.87;;;9.13;;
27580;SDS011;63557;52.302;7.964;2023-01-10T06:11:57;30.33;;;8.30;;
27580;SDS011;63557;52.302;7.964;2023-01-10T06:16:57;30.20;;;9.47;;
27580;SDS011;63557;52.302;7.964;2023-01-10T06:21:58;27.38;;;9.95;;
27580;SDS011;63557;52.302;7.964;2023-01-10T06:26:58;34.45;;;9.85;;
27580;SDS011;63557;52.302;7.964;2023-01-10T06:31:59;36.87;;;11.73;;
27580;SDS011;63557;52.302;7.964;2023-01-10T06:36:59;34.40;;;12.50;;
27580;SDS011;63557;52.302;7.964;2023-01-10T06:41:59;34.40;;;12.60;;
27580;SDS011;63557;52.302;7.964;2023-01-10T06:47:00;32.72;;;12.57;;
27580;SDS011;63557;52.302;7.964;2023-01-10T06:52:00;47.83;;;14.57;;
27580;SDS011;63557;52.302;7.964;2023-01-10T06:57:00;35.27;;;15.27;;
27580;SDS011;63557;52.302;7.964;2023-01-10T07:02:01;41.83;;;15.70;;
27580;SDS011;63557;52.302;7.964;2023-01-10T07:07:01;46.30;;;17.57;;
27580;SDS011;63557;52.302;7.964;2023-01-10T07:12:02;40.77;;;15.53;;
27580;SDS011;63557;52.302;7.964;2023-01-10T07:17:02;38.05;;;14.13;;
27580;SDS011;63557;52.302;7.964;2023-01-10T07:22:02;39.05;;;15.60;;
27580;SDS011;63557;52.302;7.964;2023-01-10T07:27:03;39.80;;;15.03;;
27580;SDS011;63557;52.302;7.964;2023-01-10T07:32:03;45.20;;;14.10;;
27580;SDS011;63557;52.302;7.964;2023-01-10T07:37:03;38.22;;;13.70;;
27580;SDS011;63557;52.302;7.964;2023-01-10T07:42:04;41.07;;;15.03;;
27580;SDS011;63557;52.302;7.964;2023-01-10T07:47:05;38.78;;;15.30;;
27580;SDS011;63557;52.302;7.964;2023-01-10T07:52:05;48.20;;;14.43;;
27580;SDS011;63557;52.302;7.964;2023-01-10T07:57:08;57.35;;;17.13;;
27580;SDS011;63557;52.302;7.964;2023-01-10T08:02:08;40.58;;;14.02;;
27580;SDS011;63557;52.302;7.964;2023-01-10T08:07:09;41.42;;;14.00;;
27580;SDS011;63557;52.302;7.964;2023-01-10T08:12:10;40.83;;;14.97;;
27580;SDS011;63557;52.302;7.964;2023-01-10T08:17:10;48.63;;;15.50;;
27580;SDS011;63557;52.302;7.964;2023-01-10T08:22:11;28.80;;;12.77;;
27580;SDS011;63557;52.302;7.964;2023-01-10T08:27:11;35.72;;;14.52;;
27580;SDS011;63557;52.302;7.964;2023-01-10T08:32:12;39.30;;;13.68;;
27580;SDS011;63557;52.302;7.964;2023-01-10T08:37:12;51.53;;;14.90;;
27580;SDS011;63557;52.302;7.964;2023-01-10T08:42:13;36.88;;;12.82;;
27580;SDS011;63557;52.302;7.964;2023-01-10T08:47:13;48.33;;;13.70;;
27580;SDS011;63557;52.302;7.964;2023-01-10T08:52:14;41.10;;;13.20;;
27580;SDS011;63557;52.302;7.964;2023-01-10T08:57:14;33.20;;;13.90;;
27580;SDS011;63557;52.302;7.964;2023-01-10T09:02:15;35.63;;;12.07;;
27580;SDS011;63557;52.302;7.964;2023-01-10T09:07:15;42.70;;;13.80;;
27580;SDS011;63557;52.302;7.964;2023-01-10T09:12:15;49.03;;;13.73;;
27580;SDS011;63557;52.302;7.964;2023-01-10T09:17:35;41.72;;;13.55;;
27580;SDS011;63557;52.302;7.964;2023-01-10T09:22:38;41.85;;;13.50;;
27580;SDS011;63557;52.302;7.964;2023-01-10T09:27:38;47.92;;;14.75;;
27580;SDS011;63557;52.302;7.964;2023-01-10T09:32:39;39.85;;;13.82;;
27580;SDS011;63557;52.302;7.964;2023-01-10T09:37:39;44.33;;;14.82;;
27580;SDS011;63557;52.302;7.964;2023-01-10T09:42:47;51.53;;;15.93;;
27580;SDS011;63557;52.302;7.964;2023-01-10T09:47:54;47.08;;;14.00;;
27580;SDS011;63557;52.302;7.964;2023-01-10T09:53:10;36.85;;;14.30;;
27580;SDS011;63557;52.302;7.964;2023-01-10T10:08:33;43.55;;;13.65;;
27580;SDS011;63557;52.302;7.964;2023-01-10T10:24:18;36.58;;;12.18;;
27580;SDS011;63557;52.302;7.964;2023-01-10T10:39:44;31.40;;;10.13;;
27580;SDS011;63557;52.302;7.964;2023-01-10T10:45:00;37.28;;;11.30;;
27580;SDS011;63557;52.302;7.964;2023-01-10T10:50:07;34.53;;;10.93;;
27580;SDS011;63557;52.302;7.964;2023-01-10T10:55:15;42.75;;;11.60;;
27580;SDS011;63557;52.302;7.964;2023-01-10T11:00:16;35.30;;;10.90;;
27580;SDS011;63557;52.302;7.964;2023-01-10T11:05:20;50.10;;;10.68;;
27580;SDS011;63557;52.302;7.964;2023-01-10T11:10:22;50.85;;;12.05;;
27580;SDS011;63557;52.302;7.964;2023-01-10T11:15:41;47.75;;;14.65;;
27580;SDS011;63557;52.302;7.964;2023-01-10T11:20:50;32.22;;;10.38;;
27580;SDS011;63557;52.302;7.964;2023-01-10T11:25:51;41.83;;;10.68;;
27580;SDS011;63557;52.302;7.964;2023-01-10T11:30:51;37.65;;;9.85;;
27580;SDS011;63557;52.302;7.964;2023-01-10T11:36:06;35.03;;;10.27;;
27580;SDS011;63557;52.302;7.964;2023-01-10T11:46:16;39.72;;;9.80;;
27580;SDS011;63557;52.302;7.964;2023-01-10T11:56:23;31.30;;;9.70;;
27580;SDS011;63557;52.302;7.964;2023-01-10T12:01:29;32.60;;;10.48;;
27580;SDS011;63557;52.302;7.964;2023-01-10T12:06:32;40.33;;;10.90;;
27580;SDS011;63557;52.302;7.964;2023-01-10T12:11:32;38.28;;;11.73;;
27580;SDS011;63557;52.302;7.964;2023-01-10T12:16:34;26.48;;;10.48;;
27580;SDS011;63557;52.302;7.964;2023-01-10T12:21:41;43.10;;;10.68;;
27580;SDS011;63557;52.302;7.964;2023-01-10T12:26:41;30.40;;;9.77;;
27580;SDS011;63557;52.302;7.964;2023-01-10T12:31:42;34.97;;;10.75;;
27580;SDS011;63557;52.302;7.964;2023-01-10T12:36:48;41.70;;;11.07;;
27580;SDS011;63557;52.302;7.964;2023-01-10T12:41:52;37.13;;;10.13;;
27580;SDS011;63557;52.302;7.964;2023-01-10T12:57:35;43.70;;;12.98;;
27580;SDS011;63557;52.302;7.964;2023-01-10T13:02:38;33.75;;;12.88;;
27580;SDS011;63557;52.302;7.964;2023-01-10T13:07:40;36.45;;;12.20;;
27580;SDS011;63557;52.302;7.964;2023-01-10T13:12:41;21.60;;;7.32;;
27580;SDS011;63557;52.302;7.964;2023-01-10T13:17:46;43.03;;;13.00;;
27580;SDS011;63557;52.302;7.964;2023-01-10T13:22:47;33.95;;;10.43;;
27580;SDS011;63557;52.302;7.964;2023-01-10T13:33:04;53.10;;;11.13;;
27580;SDS011;63557;52.302;7.964;2023-01-10T13:38:05;37.92;;;9.13;;
27580;SDS011;63557;52.302;7.964;2023-01-10T13:48:30;29.48;;;8.73;;
27580;SDS011;63557;52.302;7.964;2023-01-10T14:03:56;28.77;;;6.68;;
27580;SDS011;63557;52.302;7.964;2023-01-10T14:09:01;38.38;;;6.82;;
27580;SDS011;63557;52.302;7.964;2023-01-10T14:14:01;28.35;;;6.30;;
27580;SDS011;63557;52.302;7.964;2023-01-10T14:19:03;32.70;;;6.55;;
27580;SDS011;63557;52.302;7.964;2023-01-10T14:24:04;27.85;;;6.28;;
27580;SDS011;63557;52.302;7.964;2023-01-10T14:29:08;28.67;;;6.30;;
27580;SDS011;63557;52.302;7.964;2023-01-10T14:34:22;36.00;;;6.72;;
27580;SDS011;63557;52.302;7.964;2023-01-10T14:39:24;37.95;;;7.00;;
27580;SDS011;63557;52.302;7.964;2023-01-10T14:44:26;26.73;;;6.22;;
27580;SDS011;63557;52.302;7.964;2023-01-10T14:49:29;32.88;;;5.95;;
27580;SDS011;63557;52.302;7.964;2023-01-10T14:54:31;30.23;;;6.00;;
27580;SDS011;63557;52.302;7.964;2023-01-10T14:59:32;41.73;;;6.07;;
27580;SDS011;63557;52.302;7.964;2023-01-10T15:04:35;26.48;;;5.40;;
27580;SDS011;63557;52.302;7.964;2023-01-10T15:09:35;28.80;;;5.22;;
27580;SDS011;63557;52.302;7.964;2023-01-10T15:14:36;31.67;;;7.22;;
27580;SDS011;63557;52.302;7.964;2023-01-10T15:19:37;29.88;;;6.10;;
27580;SDS011;63557;52.302;7.964;2023-01-10T15:24:38;32.35;;;6.28;;
27580;SDS011;63557;52.302;7.964;2023-01-10T15:29:40;35.90;;;5.82;;
27580;SDS011;63557;52.302;7.964;2023-01-10T15:34:46;25.85;;;5.22;;
27580;SDS011;63557;52.302;7.964;2023-01-10T15:39:47;32.83;;;6.38;;
27580;SDS011;63557;52.302;7.964;2023-01-10T15:44:51;38.38;;;6.65;;
27580;SDS011;63557;52.302;7.964;2023-01-10T15:49:52;27.25;;;6.47;;
27580;SDS011;63557;52.302;7.964;2023-01-10T15:54:53;31.70;;;5.15;;
27580;SDS011;63557;52.302;7.964;2023-01-10T15:59:56;25.80;;;6.00;;
27580;SDS011;63557;52.302;7.964;2023-01-10T16:04:58;27.27;;;5.80;;
27580;SDS011;63557;52.302;7.964;2023-01-10T16:15:12;19.58;;;3.75;;
27580;SDS011;63557;52.302;7.964;2023-01-10T16:20:21;32.67;;;5.65;;
27580;SDS011;63557;52.302;7.964;2023-01-10T16:25:27;23.05;;;3.22;;
27580;SDS011;63557;52.302;7.964;2023-01-10T16:30:32;25.15;;;4.03;;
27580;SDS011;63557;52.302;7.964;2023-01-10T16:35:32;30.05;;;4.25;;
27580;SDS011;63557;52.302;7.964;2023-01-10T16:40:33;21.80;;;4.17;;
27580;SDS011;63557;52.302;7.964;2023-01-10T16:45:35;31.17;;;5.93;;
27580;SDS011;63557;52.302;7.964;2023-01-10T16:50:36;18.00;;;4.00;;
27580;SDS011;63557;52.302;7.964;2023-01-10T17:00:40;20.80;;;4.25;;
27580;SDS011;63557;52.302;7.964;2023-01-10T17:05:41;18.77;;;4.28;;
27580;SDS011;63557;52.302;7.964;2023-01-10T17:10:42;20.25;;;4.38;;
27580;SDS011;63557;52.302;7.964;2023-01-10T17:15:43;19.05;;;3.40;;
27580;SDS011;63557;52.302;7.964;2023-01-10T17:20:43;19.47;;;4.10;;
27580;SDS011;63557;52.302;7.964;2023-01-10T17:25:44;17.55;;;3.78;;
27580;SDS011;63557;52.302;7.964;2023-01-10T17:30:46;22.95;;;5.43;;
27580;SDS011;63557;52.302;7.964;2023-01-10T17:35:46;19.92;;;4.38;;
27580;SDS011;63557;52.302;7.964;2023-01-10T17:40:47;16.63;;;4.47;;
27580;SDS011;63557;52.302;7.964;2023-01-10T17:45:49;26.75;;;4.90;;
27580;SDS011;63557;52.302;7.964;2023-01-10T17:50:54;16.88;;;3.75;;
27580;SDS011;63557;52.302;7.964;2023-01-10T17:55:55;19.63;;;4.28;;
27580;SDS011;63557;52.302;7.964;2023-01-10T18:00:57;21.80;;;4.53;;
27580;SDS011;63557;52.302;7.964;2023-01-10T18:05:57;18.20;;;3.50;;
27580;SDS011;63557;52.302;7.964;2023-01-10T18:10:58;23.57;;;4.80;;
27580;SDS011;63557;52.302;7.964;2023-01-10T18:15:59;21.00;;;3.70;;
27580;SDS011;63557;52.302;7.964;2023-01-10T18:21:00;23.60;;;4.20;;
27580;SDS011;63557;52.302;7.964;2023-01-10T18:26:03;22.88;;;5.75;;
27580;SDS011;63557;52.302;7.964;2023-01-10T18:31:04;14.40;;;4.22;;
27580;SDS011;63557;52.302;7.964;2023-01-10T18:36:06;23.00;;;4.72;;
27580;SDS011;63557;52.302;7.964;2023-01-10T18:41:06;25.25;;;5.07;;
27580;SDS011;63557;52.302;7.964;2023-01-10T18:46:14;17.00;;;4.07;;
27580;SDS011;63557;52.302;7.964;2023-01-10T18:51:14;14.50;;;4.18;;
27580;SDS011;63557;52.302;7.964;2023-01-10T18:56:17;20.75;;;4.47;;
27580;SDS011;63557;52.302;7.964;2023-01-10T19:01:18;14.40;;;3.30;;
27580;SDS011;63557;52.302;7.964;2023-01-10T19:06:19;17.92;;;4.85;;
27580;SDS011;63557;52.302;7.964;2023-01-10T19:11:21;18.90;;;4.43;;
27580;SDS011;63557;52.302;7.964;2023-01-10T19:16:26;23.05;;;4.60;;
27580;SDS011;63557;52.302;7.964;2023-01-10T19:21:29;20.73;;;5.57;;
27580;SDS011;63557;52.302;7.964;2023-01-10T19:26:29;24.42;;;5.13;;
27580;SDS011;63557;52.302;7.964;2023-01-10T19:31:30;27.70;;;5.40;;
27580;SDS011;63557;52.302;7.964;2023-01-10T19:36:30;35.38;;;5.80;;
27580;SDS011;63557;52.302;7.964;2023-01-10T19:41:34;34.28;;;5.07;;
27580;SDS011;63557;52.302;7.964;2023-01-10T19:46:34;12.63;;;3.67;;
27580;SDS011;63557;52.302;7.964;2023-01-10T19:51:37;9.52;;;1.77;;
27580;SDS011;63557;52.302;7.964;2023-01-10T19:56:38;13.95;;;4.75;;
27580;SDS011;63557;52.302;7.964;2023-01-10T20:01:38;20.57;;;5.60;;
27580;SDS011;63557;52.302;7.964;2023-01-10T20:06:39;18.85;;;4.07;;
27580;SDS011;63557;52.302;7.964;2023-01-10T20:11:40;16.60;;;4.65;;
27580;SDS011;63557;52.302;7.964;2023-01-10T20:16:42;21.75;;;5.10;;
27580;SDS011;63557;52.302;7.964;2023-01-10T20:21:43;14.77;;;4.88;;
27580;SDS011;63557;52.302;7.964;2023-01-10T20:26:44;13.13;;;3.80;;
27580;SDS011;63557;52.302;7.964;2023-01-10T20:31:46;8.18;;;3.28;;
27580;SDS011;63557;52.302;7.964;2023-01-10T20:36:47;8.52;;;2.97;;
27580;SDS011;63557;52.302;7.964;2023-01-10T20:41:51;5.72;;;2.70;;
27580;SDS011;63557;52.302;7.964;2023-01-10T20:46:52;10.80;;;3.38;;
27580;SDS011;63557;52.302;7.964;2023-01-10T20:51:54;7.70;;;3.80;;
27580;SDS011;63557;52.302;7.964;2023-01-10T20:56:54;11.43;;;4.50;;
27580;SDS011;63557;52.302;7.964;2023-01-10T21:01:55;14.63;;;3.72;;
27580;SDS011;63557;52.302;7.964;2023-01-10T21:06:55;12.75;;;4.68;;
27580;SDS011;63557;52.302;7.964;2023-01-10T21:11:56;7.53;;;3.53;;
27580;SDS011;63557;52.302;7.964;2023-01-10T21:16:56;7.97;;;3.67;;
27580;SDS011;63557;52.302;7.964;2023-01-10T21:21:57;7.22;;;3.67;;
27580;SDS011;63557;52.302;7.964;2023-01-10T21:26:58;9.27;;;3.03;;
27580;SDS011;63557;52.302;7.964;2023-01-10T21:31:58;7.70;;;2.70;;
27580;SDS011;63557;52.302;7.964;2023-01-10T21:36:58;3.63;;;2.80;;
27580;SDS011;63557;52.302;7.964;2023-01-10T21:41:59;7.47;;;3.10;;
27580;SDS011;63557;52.302;7.964;2023-01-10T21:47:18;5.47;;;3.17;;
27580;SDS011;63557;52.302;7.964;2023-01-10T21:52:18;4.47;;;3.20;;
27580;SDS011;63557;52.302;7.964;2023-01-10T21:57:18;6.70;;;3.13;;
27580;SDS011;63557;52.302;7.964;2023-01-10T22:02:21;7.97;;;3.13;;
27580;SDS011;63557;52.302;7.964;2023-01-10T22:07:23;7.20;;;4.63;;
27580;SDS011;63557;52.302;7.964;2023-01-10T22:12:24;8.85;;;4.53;;
27580;SDS011;63557;52.302;7.964;2023-01-10T22:17:24;10.88;;;4.53;;
27580;SDS011;63557;52.302;7.964;2023-01-10T22:22:25;7.17;;;4.73;;
27580;SDS011;63557;52.302;7.964;2023-01-10T22:27:27;7.60;;;4.97;;
27580;SDS011;63557;52.302;7.964;2023-01-10T22:32:27;6.95;;;4.60;;
27580;SDS011;63557;52.302;7.964;2023-01-10T22:37:27;13.23;;;4.57;;
27580;SDS011;63557;52.302;7.964;2023-01-10T22:42:28;9.63;;;4.10;;
27580;SDS011;63557;52.302;7.964;2023-01-10T22:47:28;4.53;;;3.63;;
27580;SDS011;63557;52.302;7.964;2023-01-10T22:52:28;6.63;;;3.97;;
27580;SDS011;63557;52.302;7.964;2023-01-10T22:57:29;8.03;;;3.87;;
27580;SDS011;63557;52.302;7.964;2023-01-10T23:02:29;7.37;;;3.13;;
27580;SDS011;63557;52.302;7.964;2023-01-10T23:07:30;8.75;;;3.67;;
27580;SDS011;63557;52.302;7.964;2023-01-10T23:12:31;7.57;;;3.90;;
27580;SDS011;63557;52.302;7.964;2023-01-10T23:17:31;8.67;;;3.80;;
27580;SDS011;63557;52.302;7.964;2023-01-10T23:22:31;6.63;;;3.97;;
27580;SDS011;63557;52.302;7.964;2023-01-10T23:27:32;4.40;;;3.50;;
27580;SDS011;63557;52.302;7.964;2023-01-10T23:32:32;11.65;;;4.50;;
27580;SDS011;63557;52.302;7.964;2023-01-10T23:37:32;7.18;;;4.80;;
27580;SDS011;63557;52.302;7.964;2023-01-10T23:42:33;6.17;;;4.93;;
27580;SDS011;63557;52.302;7.964;2023-01-10T23:47:33;10.47;;;4.73;;
27580;SDS011;63557;52.302;7.964;2023-01-10T23:52:33;10.17;;;5.23;;
27580;SDS011;63557;52.302;7.964;2023-01-10T23:57:34;4.97;;;4.13;;
